aviador You're here:

KMSN Decoded Metar

MADISON in WI, USA
Report Time2017-05-23 13:53:00
UTC Time2017-05-23 14:42:17
Flight Rules mvfr MVFR
Wind210° at 04 kt
W.Decomp.*RWY 21: 4.0 kt HW 0.2 kt RCW
RWY 18: 3.4 kt HW 2.2 kt RCW
RWY 14: 1.2 kt HW 3.8 kt RCW
W.Rank210° ranks 16
Current wind is below 210° avg. (6.4)
Visibility9999 m
Phenomena:N/A
Clouds:Overcast 015 Hf
Expected CloudBase > 400 ft AGL from Temp-Dew spread
Ceiling1,500 ft
Temp13°C (ISA -0)
Dew Point12°C (94% RH)
AAT12.2°C
QNH1008 hPa
Density Alt1,181 ft
Elevation856 ft
Report Wrong Elevation
Raw Report
METAR KMSN 231353Z 21004KT 10SM OVC015 13/12 A2976 RMK AO2 SLP077 T01330117=

Extra information for KMSN:More info

Metar Taf Metar & Taf Last 4 Metars F.Rules Stats Wind Profile Meteogram Temp Stats Airport Information Weather charts Add Link Nearby VenuesMetar ALERT Operation Metar Decoded Social comments

AIRNAV info for KMSN